sensor_id;sensor_type;location;lat;lon;timestamp;P1;durP1;ratioP1;P2;durP2;ratioP2
75417;SDS011;63997;52.112;5.420;2023-03-12T00:01:56;6.28;;;3.17;;
75417;SDS011;63997;52.112;5.420;2023-03-12T00:04:24;7.80;;;3.25;;
75417;SDS011;63997;52.112;5.420;2023-03-12T00:06:51;6.33;;;3.40;;
75417;SDS011;63997;52.112;5.420;2023-03-12T00:09:17;5.70;;;3.38;;
75417;SDS011;63997;52.112;5.420;2023-03-12T00:11:44;7.13;;;4.07;;
75417;SDS011;63997;52.112;5.420;2023-03-12T00:14:10;6.10;;;2.97;;
75417;SDS011;63997;52.112;5.420;2023-03-12T00:16:37;6.45;;;3.53;;
75417;SDS011;63997;52.112;5.420;2023-03-12T00:19:03;4.47;;;3.00;;
75417;SDS011;63997;52.112;5.420;2023-03-12T00:21:29;8.95;;;3.42;;
75417;SDS011;63997;52.112;5.420;2023-03-12T00:23:56;6.32;;;3.35;;
75417;SDS011;63997;52.112;5.420;2023-03-12T00:26:23;6.20;;;3.40;;
75417;SDS011;63997;52.112;5.420;2023-03-12T00:28:50;4.15;;;2.78;;
75417;SDS011;63997;52.112;5.420;2023-03-12T00:31:21;9.37;;;3.27;;
75417;SDS011;63997;52.112;5.420;2023-03-12T00:33:49;5.70;;;3.35;;
75417;SDS011;63997;52.112;5.420;2023-03-12T00:36:16;11.23;;;4.05;;
75417;SDS011;63997;52.112;5.420;2023-03-12T00:38:44;5.90;;;3.40;;
75417;SDS011;63997;52.112;5.420;2023-03-12T00:41:10;6.05;;;3.78;;
75417;SDS011;63997;52.112;5.420;2023-03-12T00:43:37;4.10;;;3.07;;
75417;SDS011;63997;52.112;5.420;2023-03-12T00:46:04;6.75;;;3.70;;
75417;SDS011;63997;52.112;5.420;2023-03-12T00:48:30;6.15;;;3.88;;
75417;SDS011;63997;52.112;5.420;2023-03-12T00:50:56;8.38;;;3.38;;
75417;SDS011;63997;52.112;5.420;2023-03-12T00:53:23;10.32;;;4.07;;
75417;SDS011;63997;52.112;5.420;2023-03-12T00:55:49;6.60;;;3.67;;
75417;SDS011;63997;52.112;5.420;2023-03-12T00:58:16;9.75;;;3.92;;
75417;SDS011;63997;52.112;5.420;2023-03-12T01:00:42;4.72;;;3.83;;
75417;SDS011;63997;52.112;5.420;2023-03-12T01:03:08;4.53;;;3.10;;
75417;SDS011;63997;52.112;5.420;2023-03-12T01:05:35;5.55;;;2.95;;
75417;SDS011;63997;52.112;5.420;2023-03-12T01:08:03;5.17;;;3.37;;
75417;SDS011;63997;52.112;5.420;2023-03-12T01:10:30;6.25;;;3.58;;
75417;SDS011;63997;52.112;5.420;2023-03-12T01:12:57;5.25;;;3.42;;
75417;SDS011;63997;52.112;5.420;2023-03-12T01:15:23;5.28;;;3.50;;
75417;SDS011;63997;52.112;5.420;2023-03-12T01:17:50;9.40;;;3.53;;
75417;SDS011;63997;52.112;5.420;2023-03-12T01:20:17;5.37;;;3.23;;
75417;SDS011;63997;52.112;5.420;2023-03-12T01:22:43;5.97;;;3.40;;
75417;SDS011;63997;52.112;5.420;2023-03-12T01:25:10;4.88;;;2.80;;
75417;SDS011;63997;52.112;5.420;2023-03-12T01:27:37;4.60;;;2.97;;
75417;SDS011;63997;52.112;5.420;2023-03-12T01:30:03;8.65;;;2.97;;
75417;SDS011;63997;52.112;5.420;2023-03-12T01:32:30;5.17;;;2.60;;
75417;SDS011;63997;52.112;5.420;2023-03-12T01:34:57;6.35;;;2.67;;
75417;SDS011;63997;52.112;5.420;2023-03-12T01:37:25;4.90;;;2.40;;
75417;SDS011;63997;52.112;5.420;2023-03-12T01:39:52;2.88;;;2.10;;
75417;SDS011;63997;52.112;5.420;2023-03-12T01:42:18;4.47;;;2.53;;
75417;SDS011;63997;52.112;5.420;2023-03-12T01:44:49;7.23;;;2.80;;
75417;SDS011;63997;52.112;5.420;2023-03-12T01:47:23;3.50;;;2.40;;
75417;SDS011;63997;52.112;5.420;2023-03-12T01:49:51;4.97;;;2.67;;
75417;SDS011;63997;52.112;5.420;2023-03-12T01:52:26;6.80;;;2.95;;
75417;SDS011;63997;52.112;5.420;2023-03-12T01:55:00;7.43;;;2.53;;
75417;SDS011;63997;52.112;5.420;2023-03-12T02:00:04;7.18;;;2.50;;
75417;SDS011;63997;52.112;5.420;2023-03-12T02:02:34;3.28;;;2.33;;
75417;SDS011;63997;52.112;5.420;2023-03-12T02:05:12;4.85;;;2.72;;
75417;SDS011;63997;52.112;5.420;2023-03-12T02:07:45;5.47;;;2.30;;
75417;SDS011;63997;52.112;5.420;2023-03-12T02:10:12;6.53;;;2.50;;
75417;SDS011;63997;52.112;5.420;2023-03-12T02:12:39;6.28;;;2.22;;
75417;SDS011;63997;52.112;5.420;2023-03-12T02:15:05;3.65;;;2.28;;
75417;SDS011;63997;52.112;5.420;2023-03-12T02:17:32;7.13;;;2.47;;
75417;SDS011;63997;52.112;5.420;2023-03-12T02:20:24;8.85;;;2.45;;
75417;SDS011;63997;52.112;5.420;2023-03-12T02:23:02;3.30;;;2.37;;
75417;SDS011;63997;52.112;5.420;2023-03-12T02:25:40;3.42;;;2.05;;
75417;SDS011;63997;52.112;5.420;2023-03-12T02:28:12;6.03;;;2.20;;
75417;SDS011;63997;52.112;5.420;2023-03-12T02:30:41;3.28;;;2.30;;
75417;SDS011;63997;52.112;5.420;2023-03-12T02:33:09;4.53;;;2.75;;
75417;SDS011;63997;52.112;5.420;2023-03-12T02:35:36;4.67;;;2.37;;
75417;SDS011;63997;52.112;5.420;2023-03-12T02:38:22;3.70;;;2.25;;
75417;SDS011;63997;52.112;5.420;2023-03-12T02:41:09;3.67;;;2.20;;
75417;SDS011;63997;52.112;5.420;2023-03-12T02:44:07;9.13;;;2.78;;
75417;SDS011;63997;52.112;5.420;2023-03-12T02:46:38;5.55;;;2.25;;
75417;SDS011;63997;52.112;5.420;2023-03-12T02:49:09;4.10;;;2.07;;
75417;SDS011;63997;52.112;5.420;2023-03-12T02:51:38;6.70;;;2.30;;
75417;SDS011;63997;52.112;5.420;2023-03-12T02:54:05;3.40;;;1.95;;
75417;SDS011;63997;52.112;5.420;2023-03-12T02:56:32;5.13;;;2.60;;
75417;SDS011;63997;52.112;5.420;2023-03-12T02:58:59;3.38;;;1.92;;
75417;SDS011;63997;52.112;5.420;2023-03-12T03:01:29;3.07;;;1.90;;
75417;SDS011;63997;52.112;5.420;2023-03-12T03:04:00;5.50;;;1.88;;
75417;SDS011;63997;52.112;5.420;2023-03-12T03:06:27;2.35;;;1.65;;
75417;SDS011;63997;52.112;5.420;2023-03-12T03:08:54;4.40;;;1.92;;
75417;SDS011;63997;52.112;5.420;2023-03-12T03:11:20;3.80;;;2.15;;
75417;SDS011;63997;52.112;5.420;2023-03-12T03:13:50;6.27;;;1.90;;
75417;SDS011;63997;52.112;5.420;2023-03-12T03:16:17;3.60;;;1.90;;
75417;SDS011;63997;52.112;5.420;2023-03-12T03:18:44;5.28;;;2.35;;
75417;SDS011;63997;52.112;5.420;2023-03-12T03:21:11;7.90;;;1.70;;
75417;SDS011;63997;52.112;5.420;2023-03-12T03:23:42;2.55;;;1.80;;
75417;SDS011;63997;52.112;5.420;2023-03-12T03:26:09;3.07;;;1.67;;
75417;SDS011;63997;52.112;5.420;2023-03-12T03:28:36;3.72;;;1.45;;
75417;SDS011;63997;52.112;5.420;2023-03-12T03:31:03;4.22;;;1.55;;
75417;SDS011;63997;52.112;5.420;2023-03-12T03:33:30;7.38;;;2.00;;
75417;SDS011;63997;52.112;5.420;2023-03-12T03:35:59;4.38;;;1.85;;
75417;SDS011;63997;52.112;5.420;2023-03-12T03:38:27;2.80;;;1.73;;
75417;SDS011;63997;52.112;5.420;2023-03-12T03:40:54;4.88;;;1.98;;
75417;SDS011;63997;52.112;5.420;2023-03-12T03:43:21;2.17;;;1.40;;
75417;SDS011;63997;52.112;5.420;2023-03-12T03:45:48;2.60;;;1.55;;
75417;SDS011;63997;52.112;5.420;2023-03-12T03:48:21;4.53;;;1.83;;
75417;SDS011;63997;52.112;5.420;2023-03-12T03:50:47;4.93;;;1.73;;
75417;SDS011;63997;52.112;5.420;2023-03-12T03:53:14;5.97;;;1.75;;
75417;SDS011;63997;52.112;5.420;2023-03-12T03:55:40;2.60;;;1.95;;
75417;SDS011;63997;52.112;5.420;2023-03-12T03:58:06;5.30;;;1.60;;
75417;SDS011;63997;52.112;5.420;2023-03-12T04:00:33;3.65;;;1.77;;
75417;SDS011;63997;52.112;5.420;2023-03-12T04:02:59;3.70;;;1.50;;
75417;SDS011;63997;52.112;5.420;2023-03-12T04:05:26;5.60;;;1.42;;
75417;SDS011;63997;52.112;5.420;2023-03-12T04:07:52;2.08;;;1.33;;
75417;SDS011;63997;52.112;5.420;2023-03-12T04:10:21;6.32;;;2.28;;
75417;SDS011;63997;52.112;5.420;2023-03-12T04:12:49;5.20;;;1.58;;
75417;SDS011;63997;52.112;5.420;2023-03-12T04:15:16;4.70;;;1.30;;
75417;SDS011;63997;52.112;5.420;2023-03-12T04:17:42;5.22;;;1.40;;
75417;SDS011;63997;52.112;5.420;2023-03-12T04:20:09;1.60;;;1.30;;
75417;SDS011;63997;52.112;5.420;2023-03-12T04:22:36;5.20;;;1.50;;
75417;SDS011;63997;52.112;5.420;2023-03-12T04:25:02;4.28;;;1.70;;
75417;SDS011;63997;52.112;5.420;2023-03-12T04:27:29;3.63;;;2.00;;
75417;SDS011;63997;52.112;5.420;2023-03-12T04:29:55;3.67;;;1.70;;
75417;SDS011;63997;52.112;5.420;2023-03-12T04:32:22;4.60;;;1.80;;
75417;SDS011;63997;52.112;5.420;2023-03-12T04:34:48;2.30;;;1.10;;
75417;SDS011;63997;52.112;5.420;2023-03-12T04:37:14;4.97;;;2.40;;
75417;SDS011;63997;52.112;5.420;2023-03-12T04:39:42;3.73;;;1.73;;
75417;SDS011;63997;52.112;5.420;2023-03-12T04:42:09;4.68;;;1.88;;
75417;SDS011;63997;52.112;5.420;2023-03-12T04:44:36;3.13;;;1.90;;
75417;SDS011;63997;52.112;5.420;2023-03-12T04:47:03;5.75;;;1.60;;
75417;SDS011;63997;52.112;5.420;2023-03-12T04:49:29;4.70;;;1.33;;
75417;SDS011;63997;52.112;5.420;2023-03-12T04:51:56;3.07;;;1.87;;
75417;SDS011;63997;52.112;5.420;2023-03-12T04:54:22;8.30;;;2.13;;
75417;SDS011;63997;52.112;5.420;2023-03-12T04:56:48;6.32;;;1.88;;
75417;SDS011;63997;52.112;5.420;2023-03-12T04:59:15;10.38;;;2.10;;
75417;SDS011;63997;52.112;5.420;2023-03-12T05:01:42;5.07;;;2.25;;
75417;SDS011;63997;52.112;5.420;2023-03-12T05:04:09;7.57;;;2.50;;
75417;SDS011;63997;52.112;5.420;2023-03-12T05:06:35;3.08;;;2.13;;
75417;SDS011;63997;52.112;5.420;2023-03-12T05:09:02;7.60;;;2.83;;
75417;SDS011;63997;52.112;5.420;2023-03-12T05:11:28;2.65;;;2.05;;
75417;SDS011;63997;52.112;5.420;2023-03-12T05:13:55;3.85;;;2.22;;
75417;SDS011;63997;52.112;5.420;2023-03-12T05:16:21;7.27;;;2.67;;
75417;SDS011;63997;52.112;5.420;2023-03-12T05:18:48;7.53;;;2.65;;
75417;SDS011;63997;52.112;5.420;2023-03-12T05:21:15;4.72;;;2.42;;
75417;SDS011;63997;52.112;5.420;2023-03-12T05:23:44;5.47;;;2.22;;
75417;SDS011;63997;52.112;5.420;2023-03-12T05:26:18;4.32;;;1.92;;
75417;SDS011;63997;52.112;5.420;2023-03-12T05:28:53;6.27;;;2.07;;
75417;SDS011;63997;52.112;5.420;2023-03-12T05:31:20;5.00;;;2.67;;
75417;SDS011;63997;52.112;5.420;2023-03-12T05:33:47;9.00;;;2.95;;
75417;SDS011;63997;52.112;5.420;2023-03-12T05:36:17;8.95;;;2.47;;
75417;SDS011;63997;52.112;5.420;2023-03-12T05:38:45;4.88;;;2.08;;
75417;SDS011;63997;52.112;5.420;2023-03-12T05:41:16;8.47;;;2.03;;
75417;SDS011;63997;52.112;5.420;2023-03-12T05:43:51;5.43;;;2.03;;
75417;SDS011;63997;52.112;5.420;2023-03-12T05:46:18;5.53;;;2.63;;
75417;SDS011;63997;52.112;5.420;2023-03-12T05:48:45;7.30;;;2.92;;
75417;SDS011;63997;52.112;5.420;2023-03-12T05:51:11;6.35;;;2.33;;
75417;SDS011;63997;52.112;5.420;2023-03-12T05:53:38;4.17;;;1.80;;
75417;SDS011;63997;52.112;5.420;2023-03-12T05:56:05;7.65;;;2.00;;
75417;SDS011;63997;52.112;5.420;2023-03-12T05:58:34;6.38;;;2.65;;
75417;SDS011;63997;52.112;5.420;2023-03-12T06:01:00;10.15;;;2.90;;
75417;SDS011;63997;52.112;5.420;2023-03-12T06:03:27;8.55;;;2.63;;
75417;SDS011;63997;52.112;5.420;2023-03-12T06:05:53;8.53;;;2.20;;
75417;SDS011;63997;52.112;5.420;2023-03-12T06:08:21;6.65;;;2.40;;
75417;SDS011;63997;52.112;5.420;2023-03-12T06:10:49;12.27;;;2.35;;
75417;SDS011;63997;52.112;5.420;2023-03-12T06:13:17;8.63;;;2.60;;
75417;SDS011;63997;52.112;5.420;2023-03-12T06:15:43;4.35;;;2.13;;
75417;SDS011;63997;52.112;5.420;2023-03-12T06:18:09;5.80;;;2.73;;
75417;SDS011;63997;52.112;5.420;2023-03-12T06:20:36;3.25;;;1.98;;
75417;SDS011;63997;52.112;5.420;2023-03-12T06:23:04;5.45;;;2.50;;
75417;SDS011;63997;52.112;5.420;2023-03-12T06:25:30;3.22;;;2.25;;
75417;SDS011;63997;52.112;5.420;2023-03-12T06:27:56;5.82;;;2.72;;
75417;SDS011;63997;52.112;5.420;2023-03-12T06:30:23;7.07;;;2.07;;
75417;SDS011;63997;52.112;5.420;2023-03-12T06:32:49;7.85;;;2.65;;
75417;SDS011;63997;52.112;5.420;2023-03-12T06:35:16;6.25;;;2.60;;
75417;SDS011;63997;52.112;5.420;2023-03-12T06:37:42;5.15;;;3.13;;
75417;SDS011;63997;52.112;5.420;2023-03-12T06:40:10;6.45;;;2.20;;
75417;SDS011;63997;52.112;5.420;2023-03-12T06:42:38;4.40;;;2.73;;
75417;SDS011;63997;52.112;5.420;2023-03-12T06:45:05;10.70;;;2.38;;
75417;SDS011;63997;52.112;5.420;2023-03-12T06:47:32;4.70;;;2.42;;
75417;SDS011;63997;52.112;5.420;2023-03-12T06:49:58;10.32;;;2.75;;
75417;SDS011;63997;52.112;5.420;2023-03-12T06:52:24;4.35;;;2.40;;
75417;SDS011;63997;52.112;5.420;2023-03-12T06:54:52;4.57;;;2.47;;
75417;SDS011;63997;52.112;5.420;2023-03-12T06:57:18;4.20;;;2.30;;
75417;SDS011;63997;52.112;5.420;2023-03-12T06:59:44;5.18;;;2.53;;
75417;SDS011;63997;52.112;5.420;2023-03-12T07:02:15;6.97;;;2.88;;
75417;SDS011;63997;52.112;5.420;2023-03-12T07:04:41;6.05;;;2.92;;
75417;SDS011;63997;52.112;5.420;2023-03-12T07:07:08;3.70;;;2.43;;
75417;SDS011;63997;52.112;5.420;2023-03-12T07:09:36;9.93;;;3.40;;
75417;SDS011;63997;52.112;5.420;2023-03-12T07:12:03;4.90;;;3.38;;
75417;SDS011;63997;52.112;5.420;2023-03-12T07:14:29;11.40;;;2.92;;
75417;SDS011;63997;52.112;5.420;2023-03-12T07:16:55;5.22;;;2.92;;
75417;SDS011;63997;52.112;5.420;2023-03-12T07:19:23;3.87;;;2.80;;
75417;SDS011;63997;52.112;5.420;2023-03-12T07:21:49;4.00;;;2.58;;
75417;SDS011;63997;52.112;5.420;2023-03-12T07:24:15;6.22;;;2.88;;
75417;SDS011;63997;52.112;5.420;2023-03-12T07:26:42;4.35;;;3.03;;
75417;SDS011;63997;52.112;5.420;2023-03-12T07:29:08;4.25;;;2.78;;
75417;SDS011;63997;52.112;5.420;2023-03-12T07:31:35;8.33;;;3.60;;
75417;SDS011;63997;52.112;5.420;2023-03-12T07:34:01;4.00;;;2.92;;
75417;SDS011;63997;52.112;5.420;2023-03-12T07:36:28;4.55;;;3.13;;
75417;SDS011;63997;52.112;5.420;2023-03-12T07:38:58;5.10;;;3.35;;
75417;SDS011;63997;52.112;5.420;2023-03-12T07:41:24;6.28;;;3.70;;
75417;SDS011;63997;52.112;5.420;2023-03-12T07:43:51;10.17;;;3.23;;
75417;SDS011;63997;52.112;5.420;2023-03-12T07:46:17;5.95;;;3.10;;
75417;SDS011;63997;52.112;5.420;2023-03-12T07:48:44;9.55;;;3.53;;
75417;SDS011;63997;52.112;5.420;2023-03-12T07:51:10;7.93;;;3.60;;
75417;SDS011;63997;52.112;5.420;2023-03-12T07:53:36;5.72;;;3.58;;
75417;SDS011;63997;52.112;5.420;2023-03-12T07:56:03;7.83;;;3.60;;
75417;SDS011;63997;52.112;5.420;2023-03-12T07:58:30;6.28;;;3.60;;
75417;SDS011;63997;52.112;5.420;2023-03-12T08:00:57;7.35;;;3.75;;
75417;SDS011;63997;52.112;5.420;2023-03-12T08:03:23;10.35;;;4.07;;
75417;SDS011;63997;52.112;5.420;2023-03-12T08:05:54;8.77;;;4.05;;
75417;SDS011;63997;52.112;5.420;2023-03-12T08:08:22;5.43;;;3.10;;
75417;SDS011;63997;52.112;5.420;2023-03-12T08:10:48;5.03;;;3.83;;
75417;SDS011;63997;52.112;5.420;2023-03-12T08:13:15;7.57;;;4.50;;
75417;SDS011;63997;52.112;5.420;2023-03-12T08:15:42;5.82;;;3.58;;
75417;SDS011;63997;52.112;5.420;2023-03-12T08:18:08;9.25;;;4.32;;
75417;SDS011;63997;52.112;5.420;2023-03-12T08:20:35;6.43;;;3.63;;
75417;SDS011;63997;52.112;5.420;2023-03-12T08:23:01;8.80;;;4.63;;
75417;SDS011;63997;52.112;5.420;2023-03-12T08:25:28;11.82;;;4.13;;
75417;SDS011;63997;52.112;5.420;2023-03-12T08:27:54;9.90;;;4.55;;
75417;SDS011;63997;52.112;5.420;2023-03-12T08:30:21;6.93;;;4.80;;
75417;SDS011;63997;52.112;5.420;2023-03-12T08:32:47;7.13;;;4.47;;
75417;SDS011;63997;52.112;5.420;2023-03-12T08:35:14;8.82;;;4.47;;
75417;SDS011;63997;52.112;5.420;2023-03-12T08:37:40;9.52;;;4.22;;
75417;SDS011;63997;52.112;5.420;2023-03-12T08:40:07;8.32;;;4.20;;
75417;SDS011;63997;52.112;5.420;2023-03-12T08:42:40;7.35;;;3.92;;
75417;SDS011;63997;52.112;5.420;2023-03-12T08:45:08;8.80;;;5.13;;
75417;SDS011;63997;52.112;5.420;2023-03-12T08:47:36;7.25;;;4.57;;
75417;SDS011;63997;52.112;5.420;2023-03-12T08:50:04;7.55;;;4.68;;
75417;SDS011;63997;52.112;5.420;2023-03-12T08:52:31;10.68;;;5.03;;
75417;SDS011;63997;52.112;5.420;2023-03-12T08:54:58;8.35;;;4.68;;
75417;SDS011;63997;52.112;5.420;2023-03-12T08:57:24;11.77;;;5.03;;
75417;SDS011;63997;52.112;5.420;2023-03-12T08:59:50;9.35;;;5.25;;
75417;SDS011;63997;52.112;5.420;2023-03-12T09:02:17;7.40;;;5.22;;
75417;SDS011;63997;52.112;5.420;2023-03-12T09:04:46;8.80;;;5.22;;
75417;SDS011;63997;52.112;5.420;2023-03-12T09:07:13;7.00;;;4.93;;
75417;SDS011;63997;52.112;5.420;2023-03-12T09:09:40;9.47;;;5.47;;
75417;SDS011;63997;52.112;5.420;2023-03-12T09:12:06;9.23;;;5.78;;
75417;SDS011;63997;52.112;5.420;2023-03-12T09:14:33;8.15;;;6.07;;
75417;SDS011;63997;52.112;5.420;2023-03-12T09:17:19;9.05;;;5.38;;
75417;SDS011;63997;52.112;5.420;2023-03-12T09:19:45;9.07;;;5.88;;
75417;SDS011;63997;52.112;5.420;2023-03-12T09:22:12;9.07;;;6.33;;
75417;SDS011;63997;52.112;5.420;2023-03-12T09:24:38;11.88;;;6.38;;
75417;SDS011;63997;52.112;5.420;2023-03-12T09:27:05;11.35;;;7.18;;
75417;SDS011;63997;52.112;5.420;2023-03-12T09:29:32;11.85;;;6.88;;
75417;SDS011;63997;52.112;5.420;2023-03-12T09:31:59;13.95;;;7.13;;
75417;SDS011;63997;52.112;5.420;2023-03-12T09:34:25;10.87;;;7.13;;
75417;SDS011;63997;52.112;5.420;2023-03-12T09:36:51;16.42;;;7.28;;
75417;SDS011;63997;52.112;5.420;2023-03-12T09:39:18;14.73;;;7.68;;
75417;SDS011;63997;52.112;5.420;2023-03-12T09:41:45;15.93;;;8.57;;
75417;SDS011;63997;52.112;5.420;2023-03-12T09:50:00;18.70;;;8.43;;
75417;SDS011;63997;52.112;5.420;2023-03-12T09:52:55;15.15;;;8.35;;
75417;SDS011;63997;52.112;5.420;2023-03-12T09:55:26;15.00;;;8.32;;
75417;SDS011;63997;52.112;5.420;2023-03-12T09:57:56;16.30;;;8.55;;
75417;SDS011;63997;52.112;5.420;2023-03-12T10:00:26;16.33;;;9.37;;
75417;SDS011;63997;52.112;5.420;2023-03-12T10:03:06;18.63;;;9.45;;
75417;SDS011;63997;52.112;5.420;2023-03-12T10:08:34;17.83;;;9.73;;
75417;SDS011;63997;52.112;5.420;2023-03-12T10:14:08;18.77;;;9.33;;
75417;SDS011;63997;52.112;5.420;2023-03-12T10:19:44;17.05;;;9.57;;
75417;SDS011;63997;52.112;5.420;2023-03-12T10:25:26;17.67;;;8.85;;
75417;SDS011;63997;52.112;5.420;2023-03-12T10:28:06;17.20;;;9.70;;
75417;SDS011;63997;52.112;5.420;2023-03-12T10:30:41;18.23;;;9.88;;
75417;SDS011;63997;52.112;5.420;2023-03-12T10:33:16;16.02;;;9.52;;
75417;SDS011;63997;52.112;5.420;2023-03-12T10:35:44;18.13;;;9.93;;
75417;SDS011;63997;52.112;5.420;2023-03-12T10:38:13;17.13;;;9.70;;
75417;SDS011;63997;52.112;5.420;2023-03-12T10:40:43;20.90;;;10.33;;
75417;SDS011;63997;52.112;5.420;2023-03-12T10:43:09;19.58;;;10.50;;
75417;SDS011;63997;52.112;5.420;2023-03-12T10:45:41;18.85;;;11.00;;
75417;SDS011;63997;52.112;5.420;2023-03-12T10:48:09;15.25;;;9.68;;
75417;SDS011;63997;52.112;5.420;2023-03-12T10:50:42;16.08;;;9.55;;
75417;SDS011;63997;52.112;5.420;2023-03-12T10:53:29;19.13;;;9.77;;
75417;SDS011;63997;52.112;5.420;2023-03-12T10:56:05;15.82;;;9.40;;
75417;SDS011;63997;52.112;5.420;2023-03-12T10:58:43;17.67;;;10.77;;
75417;SDS011;63997;52.112;5.420;2023-03-12T11:03:41;16.95;;;8.77;;
75417;SDS011;63997;52.112;5.420;2023-03-12T11:06:08;16.37;;;9.07;;
75417;SDS011;63997;52.112;5.420;2023-03-12T11:08:44;17.08;;;8.73;;
75417;SDS011;63997;52.112;5.420;2023-03-12T11:11:41;19.48;;;9.02;;
75417;SDS011;63997;52.112;5.420;2023-03-12T11:14:20;21.52;;;9.07;;
75417;SDS011;63997;52.112;5.420;2023-03-12T11:16:47;21.83;;;9.20;;
75417;SDS011;63997;52.112;5.420;2023-03-12T11:22:10;19.77;;;7.50;;
75417;SDS011;63997;52.112;5.420;2023-03-12T11:24:53;19.50;;;7.97;;
75417;SDS011;63997;52.112;5.420;2023-03-12T11:27:27;25.70;;;7.75;;
75417;SDS011;63997;52.112;5.420;2023-03-12T11:30:06;19.27;;;6.80;;
75417;SDS011;63997;52.112;5.420;2023-03-12T11:32:45;19.47;;;6.70;;
75417;SDS011;63997;52.112;5.420;2023-03-12T11:35:20;18.10;;;6.35;;
75417;SDS011;63997;52.112;5.420;2023-03-12T11:38:18;19.00;;;6.55;;
75417;SDS011;63997;52.112;5.420;2023-03-12T11:41:14;19.85;;;6.07;;
75417;SDS011;63997;52.112;5.420;2023-03-12T11:46:49;17.87;;;5.20;;
75417;SDS011;63997;52.112;5.420;2023-03-12T11:49:30;14.50;;;4.75;;
75417;SDS011;63997;52.112;5.420;2023-03-12T11:55:12;13.63;;;4.65;;
75417;SDS011;63997;52.112;5.420;2023-03-12T12:00:43;19.97;;;5.00;;
75417;SDS011;63997;52.112;5.420;2023-03-12T12:06:35;12.32;;;4.20;;
75417;SDS011;63997;52.112;5.420;2023-03-12T12:11:58;18.13;;;4.75;;
75417;SDS011;63997;52.112;5.420;2023-03-12T12:17:29;11.57;;;4.13;;
75417;SDS011;63997;52.112;5.420;2023-03-12T12:20:35;13.73;;;3.95;;
75417;SDS011;63997;52.112;5.420;2023-03-12T12:26:13;17.63;;;3.97;;
75417;SDS011;63997;52.112;5.420;2023-03-12T12:31:36;16.02;;;5.13;;
75417;SDS011;63997;52.112;5.420;2023-03-12T12:34:20;18.55;;;4.00;;
75417;SDS011;63997;52.112;5.420;2023-03-12T12:42:55;15.27;;;4.63;;
75417;SDS011;63997;52.112;5.420;2023-03-12T12:45:26;18.90;;;4.78;;
75417;SDS011;63997;52.112;5.420;2023-03-12T12:48:00;17.90;;;3.67;;
75417;SDS011;63997;52.112;5.420;2023-03-12T12:50:32;15.07;;;3.80;;
75417;SDS011;63997;52.112;5.420;2023-03-12T12:58:45;19.17;;;4.22;;
75417;SDS011;63997;52.112;5.420;2023-03-12T13:01:23;13.35;;;3.75;;
75417;SDS011;63997;52.112;5.420;2023-03-12T13:03:53;19.85;;;3.63;;
75417;SDS011;63997;52.112;5.420;2023-03-12T13:06:27;23.05;;;4.10;;
75417;SDS011;63997;52.112;5.420;2023-03-12T13:08:59;24.50;;;4.17;;
75417;SDS011;63997;52.112;5.420;2023-03-12T13:11:39;24.67;;;4.35;;
75417;SDS011;63997;52.112;5.420;2023-03-12T13:16:36;21.63;;;4.65;;
75417;SDS011;63997;52.112;5.420;2023-03-12T13:21:40;24.93;;;4.00;;
75417;SDS011;63997;52.112;5.420;2023-03-12T13:24:30;23.02;;;4.88;;
75417;SDS011;63997;52.112;5.420;2023-03-12T13:29:49;29.25;;;4.65;;
75417;SDS011;63997;52.112;5.420;2023-03-12T13:35:27;25.57;;;4.10;;
75417;SDS011;63997;52.112;5.420;2023-03-12T13:43:11;27.67;;;4.13;;
75417;SDS011;63997;52.112;5.420;2023-03-12T13:48:15;31.53;;;5.07;;
75417;SDS011;63997;52.112;5.420;2023-03-12T13:50:48;23.63;;;4.18;;
75417;SDS011;63997;52.112;5.420;2023-03-12T13:53:33;22.95;;;4.15;;
75417;SDS011;63997;52.112;5.420;2023-03-12T13:56:05;23.52;;;3.95;;
75417;SDS011;63997;52.112;5.420;2023-03-12T13:58:47;20.30;;;3.80;;
75417;SDS011;63997;52.112;5.420;2023-03-12T14:01:19;24.53;;;3.67;;
75417;SDS011;63997;52.112;5.420;2023-03-12T14:03:50;20.48;;;3.72;;
75417;SDS011;63997;52.112;5.420;2023-03-12T14:06:22;20.08;;;4.18;;
75417;SDS011;63997;52.112;5.420;2023-03-12T14:17:13;19.83;;;3.70;;
75417;SDS011;63997;52.112;5.420;2023-03-12T14:22:40;19.05;;;2.85;;
75417;SDS011;63997;52.112;5.420;2023-03-12T14:28:02;21.33;;;2.80;;
75417;SDS011;63997;52.112;5.420;2023-03-12T14:30:40;18.40;;;2.78;;
75417;SDS011;63997;52.112;5.420;2023-03-12T14:33:13;17.08;;;2.47;;
75417;SDS011;63997;52.112;5.420;2023-03-12T14:35:46;19.48;;;2.58;;
75417;SDS011;63997;52.112;5.420;2023-03-12T14:38:20;23.90;;;2.95;;
75417;SDS011;63997;52.112;5.420;2023-03-12T14:41:02;24.27;;;3.43;;
75417;SDS011;63997;52.112;5.420;2023-03-12T14:43:38;25.88;;;3.42;;
75417;SDS011;63997;52.112;5.420;2023-03-12T14:46:20;20.50;;;2.55;;
75417;SDS011;63997;52.112;5.420;2023-03-12T14:48:48;25.88;;;2.78;;
75417;SDS011;63997;52.112;5.420;2023-03-12T14:51:24;14.18;;;2.70;;
75417;SDS011;63997;52.112;5.420;2023-03-12T14:53:52;12.77;;;1.83;;
75417;SDS011;63997;52.112;5.420;2023-03-12T14:56:30;17.10;;;2.40;;
75417;SDS011;63997;52.112;5.420;2023-03-12T14:59:00;16.27;;;2.33;;
75417;SDS011;63997;52.112;5.420;2023-03-12T15:01:45;20.63;;;2.75;;
75417;SDS011;63997;52.112;5.420;2023-03-12T15:04:13;20.95;;;3.10;;
75417;SDS011;63997;52.112;5.420;2023-03-12T15:06:43;17.13;;;2.70;;
75417;SDS011;63997;52.112;5.420;2023-03-12T15:09:16;19.02;;;3.55;;
75417;SDS011;63997;52.112;5.420;2023-03-12T15:11:49;21.63;;;3.25;;
75417;SDS011;63997;52.112;5.420;2023-03-12T15:14:34;18.00;;;2.72;;
75417;SDS011;63997;52.112;5.420;2023-03-12T15:17:04;32.80;;;4.43;;
75417;SDS011;63997;52.112;5.420;2023-03-12T15:19:34;18.57;;;2.37;;
75417;SDS011;63997;52.112;5.420;2023-03-12T15:22:06;17.75;;;2.10;;
75417;SDS011;63997;52.112;5.420;2023-03-12T15:24:39;26.13;;;2.55;;
75417;SDS011;63997;52.112;5.420;2023-03-12T15:27:20;20.55;;;2.75;;
75417;SDS011;63997;52.112;5.420;2023-03-12T15:29:56;18.08;;;3.40;;
75417;SDS011;63997;52.112;5.420;2023-03-12T15:32:24;15.13;;;2.67;;
75417;SDS011;63997;52.112;5.420;2023-03-12T15:34:52;15.48;;;2.58;;
75417;SDS011;63997;52.112;5.420;2023-03-12T15:37:28;17.80;;;3.30;;
75417;SDS011;63997;52.112;5.420;2023-03-12T15:40:21;16.52;;;2.40;;
75417;SDS011;63997;52.112;5.420;2023-03-12T15:42:50;20.15;;;2.40;;
75417;SDS011;63997;52.112;5.420;2023-03-12T15:45:21;21.23;;;3.00;;
75417;SDS011;63997;52.112;5.420;2023-03-12T15:47:51;15.65;;;2.47;;
75417;SDS011;63997;52.112;5.420;2023-03-12T15:50:20;11.52;;;2.05;;
75417;SDS011;63997;52.112;5.420;2023-03-12T15:55:29;20.42;;;2.63;;
75417;SDS011;63997;52.112;5.420;2023-03-12T15:58:00;18.77;;;3.37;;
75417;SDS011;63997;52.112;5.420;2023-03-12T16:00:28;18.38;;;2.45;;
75417;SDS011;63997;52.112;5.420;2023-03-12T16:05:35;20.02;;;2.72;;
75417;SDS011;63997;52.112;5.420;2023-03-12T16:10:46;13.00;;;2.53;;
75417;SDS011;63997;52.112;5.420;2023-03-12T16:13:15;20.88;;;2.40;;
75417;SDS011;63997;52.112;5.420;2023-03-12T16:15:44;16.02;;;2.60;;
75417;SDS011;63997;52.112;5.420;2023-03-12T16:18:14;24.10;;;2.75;;
75417;SDS011;63997;52.112;5.420;2023-03-12T16:20:43;24.08;;;3.95;;
75417;SDS011;63997;52.112;5.420;2023-03-12T16:23:10;20.40;;;2.20;;
75417;SDS011;63997;52.112;5.420;2023-03-12T16:25:37;18.15;;;2.90;;
75417;SDS011;63997;52.112;5.420;2023-03-12T16:28:04;20.67;;;3.42;;
75417;SDS011;63997;52.112;5.420;2023-03-12T16:30:32;21.05;;;3.67;;
75417;SDS011;63997;52.112;5.420;2023-03-12T16:33:01;13.90;;;2.67;;
75417;SDS011;63997;52.112;5.420;2023-03-12T16:35:33;22.30;;;3.03;;
75417;SDS011;63997;52.112;5.420;2023-03-12T16:38:00;19.90;;;2.70;;
75417;SDS011;63997;52.112;5.420;2023-03-12T16:40:27;20.13;;;2.55;;
75417;SDS011;63997;52.112;5.420;2023-03-12T16:42:59;24.15;;;3.10;;